Time;durP1;ratioP1;P1;durP2;ratioP2;P2;SDS_P1;SDS_P2;PMS_P1;PMS_P2;Temp;Humidity;BMP_temperature;BMP_pressure;BME280_temperature;BME280_humidity;BME280_pressure;Samples;Min_cycle;Max_cycle;Signal;HPM_P1;HPM_P2
2021/09/19 00:00:23;;;;;;;30.70;18.50;;;17.00;99.90;;;;;;4952442;29;20080;-86
2021/09/19 00:02:55;;;;;;;30.35;16.90;;;16.90;99.90;;;;;;4960399;29;20059;-86
2021/09/19 00:05:30;;;;;;;35.55;19.75;;;16.90;99.90;;;;;;4965137;29;20056;-85
2021/09/19 00:08:07;;;;;;;26.02;16.58;;;16.80;99.90;;;;;;4953157;29;20063;-85
2021/09/19 00:10:42;;;;;;;29.75;16.92;;;16.80;99.90;;;;;;4964107;29;20078;-85
2021/09/19 00:13:14;;;;;;;32.28;19.35;;;16.80;99.90;;;;;;4950352;29;20054;-86
2021/09/19 00:15:46;;;;;;;32.65;20.15;;;16.70;99.90;;;;;;4952576;29;20055;-86
2021/09/19 00:18:19;;;;;;;30.65;18.77;;;18.00;99.90;;;;;;4991387;28;20059;-85
2021/09/19 00:20:53;;;;;;;34.90;19.17;;;16.70;99.90;;;;;;4991949;28;20050;-86
2021/09/19 00:23:25;;;;;;;35.33;20.88;;;16.60;99.90;;;;;;4977726;28;20084;-85
2021/09/19 00:25:54;;;;;;;33.50;19.80;;;16.50;99.90;;;;;;4995182;28;20050;-85
2021/09/19 00:28:24;;;;;;;31.17;18.90;;;16.50;99.90;;;;;;4995217;28;20046;-86
2021/09/19 00:31:04;;;;;;;31.92;19.55;;;16.40;99.90;;;;;;4996198;28;20058;-87
2021/09/19 00:33:38;;;;;;;36.97;20.33;;;16.30;99.90;;;;;;4978685;28;20042;-86
2021/09/19 00:36:41;;;;;;;41.63;20.00;;;16.20;99.90;;;;;;5012711;28;20146;-86
2021/09/19 00:39:57;;;;;;;39.45;24.13;;;16.30;99.90;;;;;;5011667;28;20046;-86
2021/09/19 00:42:42;;;;;;;42.70;25.20;;;16.30;99.90;;;;;;4982087;28;20097;-86
2021/09/19 00:45:35;;;;;;;45.13;23.45;;;16.30;99.90;;;;;;4981833;28;20056;-85
2021/09/19 00:48:13;;;;;;;39.33;22.35;;;16.20;99.90;;;;;;5039919;28;20049;-86
2021/09/19 00:51:08;;;;;;;40.75;25.63;;;16.00;99.90;;;;;;5052768;28;20049;-86
2021/09/19 00:53:49;;;;;;;41.00;26.50;;;16.40;99.90;;;;;;5055213;28;20048;-85
2021/09/19 00:56:32;;;;;;;41.22;25.08;;;16.50;99.90;;;;;;5052554;28;20049;-85
2021/09/19 00:59:09;;;;;;;38.10;23.55;;;16.50;99.90;;;;;;5018129;28;20049;-86
2021/09/19 01:01:44;;;;;;;39.53;25.05;;;15.80;99.90;;;;;;5020772;28;20064;-86
2021/09/19 01:04:18;;;;;;;43.70;24.73;;;15.80;99.90;;;;;;5035818;28;20056;-86
2021/09/19 01:06:51;;;;;;;;;;;16.60;99.90;;;;;;5034577;28;20064;-87
2021/09/19 01:09:22;;;;;;;37.65;23.85;;;16.50;99.90;;;;;;5051992;28;19909;-86
2021/09/19 01:12:07;;;;;;;40.80;24.88;;;16.50;99.90;;;;;;5034986;28;20041;-86
2021/09/19 01:14:41;;;;;;;36.90;23.25;;;16.50;99.90;;;;;;5053138;28;20045;-86
2021/09/19 01:17:42;;;;;;;43.65;25.90;;;16.40;99.90;;;;;;5048143;28;20068;-86
2021/09/19 01:20:16;;;;;;;37.05;23.38;;;16.00;99.90;;;;;;5037291;28;20045;-86
2021/09/19 01:23:15;;;;;;;39.38;24.83;;;16.50;99.90;;;;;;5050919;28;20049;-86
2021/09/19 01:26:28;;;;;;;46.03;26.13;;;16.60;99.90;;;;;;5034088;28;20123;-86
2021/09/19 01:29:06;;;;;;;40.33;25.52;;;16.50;99.90;;;;;;4999326;28;20052;-85
2021/09/19 01:31:38;;;;;;;41.42;26.38;;;16.50;99.90;;;;;;5037198;28;20054;-86
2021/09/19 01:34:10;;;;;;;37.65;24.63;;;16.50;99.90;;;;;;5047105;28;20057;-86
2021/09/19 01:36:38;;;;;;;40.05;24.10;;;16.50;99.90;;;;;;5050781;28;20049;-85
2021/09/19 01:39:11;;;;;;;40.08;23.45;;;16.40;99.90;;;;;;5037302;28;20041;-85
2021/09/19 01:41:41;;;;;;;43.33;26.33;;;16.40;99.90;;;;;;5050945;28;20430;-86
2021/09/19 01:44:12;;;;;;;41.70;25.05;;;16.40;99.90;;;;;;5017798;28;20045;-86
2021/09/19 01:46:42;;;;;;;41.95;27.13;;;16.40;99.90;;;;;;5049494;28;20063;-86
2021/09/19 01:49:22;;;;;;;42.25;26.70;;;16.40;99.90;;;;;;5003132;28;20030;-85
2021/09/19 01:51:58;;;;;;;44.42;25.23;;;16.40;99.90;;;;;;5004044;28;20045;-86
2021/09/19 01:54:28;;;;;;;38.15;25.13;;;16.50;99.90;;;;;;5035357;28;20038;-85
2021/09/19 01:57:15;;;;;;;40.45;26.48;;;16.30;99.90;;;;;;5066276;28;20060;-86
2021/09/19 01:59:57;;;;;;;47.28;26.92;;;16.30;99.90;;;;;;5040339;28;20056;-86
2021/09/19 02:02:46;;;;;;;45.75;26.70;;;16.30;99.90;;;;;;5054521;28;20045;-86
2021/09/19 02:05:22;;;;;;;38.47;25.38;;;16.20;99.90;;;;;;5054616;28;20046;-86
2021/09/19 02:08:20;;;;;;;42.05;25.25;;;16.20;99.90;;;;;;5042929;28;20041;-86
2021/09/19 02:14:23;;;;;;;43.92;25.60;;;15.30;99.90;;;;;;5043433;28;20037;-86
2021/09/19 02:17:04;;;;;;;39.90;25.52;;;16.20;99.90;;;;;;5023465;28;20045;-85
2021/09/19 02:19:43;;;;;;;42.17;27.95;;;16.20;99.90;;;;;;5033372;28;20058;-85
2021/09/19 02:22:57;;;;;;;44.90;28.92;;;16.20;99.90;;;;;;5035357;28;20064;-86
2021/09/19 02:25:30;;;;;;;41.17;25.95;;;16.30;99.90;;;;;;5036988;28;20060;-86
2021/09/19 02:28:10;;;;;;;46.08;26.45;;;16.40;99.90;;;;;;5048019;28;20062;-86
2021/09/19 02:30:57;;;;;;;44.85;27.20;;;16.10;99.90;;;;;;5051503;28;20063;-85
2021/09/19 02:44:15;;;;;;;52.87;30.73;;;16.10;99.90;;;;;;5140648;27;1896235;-86
2021/09/19 02:46:46;;;;;;;53.55;29.75;;;15.80;99.90;;;;;;5151185;27;20677;-86
2021/09/19 02:49:17;;;;;;;58.55;34.05;;;15.80;99.90;;;;;;5111098;28;20049;-87
2021/09/19 02:51:46;;;;;;;61.50;32.43;;;15.70;99.90;;;;;;5111962;27;20057;-86
2021/09/19 02:54:17;;;;;;;51.55;31.77;;;15.70;99.90;;;;;;5138093;27;20298;-86
2021/09/19 02:56:46;;;;;;;46.35;32.53;;;15.70;99.90;;;;;;5113117;28;20047;-86
2021/09/19 02:59:18;;;;;;;45.03;30.35;;;15.60;99.90;;;;;;5135650;27;20042;-86
2021/09/19 03:01:51;;;;;;;55.42;30.85;;;15.50;99.90;;;;;;5135214;28;20036;-86
2021/09/19 03:04:55;;;;;;;55.00;31.08;;;15.50;99.90;;;;;;5148228;27;20076;-85
2021/09/19 03:07:30;;;;;;;55.80;34.33;;;15.40;99.90;;;;;;5111098;27;20039;-87
2021/09/19 03:10:28;;;;;;;47.88;32.45;;;15.40;99.90;;;;;;5154251;27;20045;-88
2021/09/19 03:13:29;;;;;;;51.47;32.00;;;15.30;99.90;;;;;;5143566;27;20033;-86
2021/09/19 03:16:00;;;;;;;46.75;30.23;;;15.30;99.90;;;;;;5089251;27;20050;-86
2021/09/19 03:18:39;;;;;;;57.33;33.88;;;15.20;99.90;;;;;;5134035;27;20065;-87
2021/09/19 03:21:11;;;;;;;54.33;33.70;;;15.20;99.90;;;;;;5130735;28;20048;-87
2021/09/19 03:23:44;;;;;;;48.03;31.30;;;15.30;99.90;;;;;;5140790;27;20035;-88
2021/09/19 03:26:19;;;;;;;57.83;34.17;;;15.10;99.90;;;;;;5112976;28;20061;-85
2021/09/19 03:28:51;;;;;;;48.83;31.02;;;15.00;99.90;;;;;;5119280;27;20031;-86
2021/09/19 03:31:20;;;;;;;61.80;34.13;;;15.00;99.90;;;;;;5136979;27;20033;-87
2021/09/19 03:33:56;;;;;;;56.20;31.98;;;15.00;99.90;;;;;;5120692;27;20046;-87
2021/09/19 03:36:27;;;;;;;46.72;31.63;;;14.90;99.90;;;;;;5137219;27;20037;-86
2021/09/19 03:39:00;;;;;;;51.35;31.75;;;14.90;99.90;;;;;;5109879;27;20030;-87
2021/09/19 03:41:42;;;;;;;54.90;33.15;;;14.90;99.90;;;;;;5120519;27;20042;-86
2021/09/19 03:44:21;;;;;;;50.60;32.33;;;14.80;99.90;;;;;;5122880;28;20042;-86
2021/09/19 03:46:51;;;;;;;53.88;33.85;;;14.80;99.90;;;;;;5105153;27;20031;-87
2021/09/19 03:49:27;;;;;;;69.30;33.40;;;14.70;99.90;;;;;;5117233;28;20046;-86
2021/09/19 03:52:09;;;;;;;51.58;34.47;;;14.70;99.90;;;;;;5125406;27;20043;-88
2021/09/19 03:54:41;;;;;;;56.30;34.40;;;14.70;99.90;;;;;;5114745;27;20047;-87
2021/09/19 03:57:18;;;;;;;49.45;33.10;;;14.70;99.90;;;;;;5113576;28;20043;-87
2021/09/19 03:59:50;;;;;;;48.95;31.73;;;14.60;99.90;;;;;;5095893;27;20058;-87
2021/09/19 04:02:49;;;;;;;49.03;32.53;;;14.70;99.90;;;;;;5116959;28;20050;-86
2021/09/19 04:05:48;;;;;;;52.58;31.25;;;14.70;99.90;;;;;;5122089;27;20037;-86
2021/09/19 04:08:26;;;;;;;52.33;33.15;;;14.60;99.90;;;;;;5105771;27;20050;-88
2021/09/19 04:11:27;;;;;;;56.33;34.90;;;14.70;99.90;;;;;;5100557;28;20036;-87
2021/09/19 04:14:10;;;;;;;53.93;34.60;;;14.60;99.90;;;;;;5101613;28;20028;-88
2021/09/19 04:16:55;;;;;;;48.55;29.80;;;14.70;99.90;;;;;;5094454;28;20075;-87
2021/09/19 04:19:36;;;;;;;57.35;34.67;;;14.70;99.90;;;;;;5136439;27;20036;-87
2021/09/19 04:22:53;;;;;;;48.00;31.02;;;14.80;99.90;;;;;;5117905;28;20050;-88
2021/09/19 04:25:57;;;;;;;50.38;31.10;;;14.80;99.90;;;;;;5111587;28;20050;-89
2021/09/19 04:28:29;;;;;;;47.40;29.08;;;14.80;99.90;;;;;;5089165;27;20038;-87
2021/09/19 04:30:59;;;;;;;;;;;14.80;99.90;;;;;;5118501;28;20054;-86
2021/09/19 04:33:31;;;;;;;;;;;14.80;99.90;;;;;;5124425;27;19919;-87
2021/09/19 04:36:04;;;;;;;49.42;29.75;;;14.90;99.90;;;;;;5120805;27;20307;-88
2021/09/19 04:38:46;;;;;;;45.80;29.33;;;15.10;99.90;;;;;;5102654;27;20035;-86
2021/09/19 04:41:23;;;;;;;53.00;34.30;;;14.90;99.90;;;;;;5136924;27;20053;-86
2021/09/19 04:43:53;;;;;;;50.45;31.10;;;14.90;99.90;;;;;;5117719;28;20050;-87
2021/09/19 04:46:32;;;;;;;53.17;33.50;;;15.00;99.90;;;;;;5116460;27;20040;-87
2021/09/19 04:49:07;;;;;;;46.08;30.27;;;14.90;99.90;;;;;;5094680;28;20019;-89
2021/09/19 04:51:55;;;;;;;48.40;31.38;;;14.80;99.90;;;;;;5115697;28;20052;-87
2021/09/19 04:54:35;;;;;;;49.28;29.88;;;14.80;99.90;;;;;;5147107;27;20147;-88
2021/09/19 04:57:14;;;;;;;50.30;30.77;;;14.80;99.90;;;;;;5104342;27;20042;-87
2021/09/19 04:59:43;;;;;;;43.08;27.17;;;14.60;99.90;;;;;;5091463;28;20047;-86
2021/09/19 05:02:18;;;;;;;50.83;32.33;;;14.70;99.90;;;;;;5118803;28;20031;-87
2021/09/19 05:04:48;;;;;;;46.65;27.10;;;14.70;99.90;;;;;;5111908;27;20449;-88
2021/09/19 05:07:27;;;;;;;54.97;35.75;;;14.70;99.90;;;;;;5107357;28;20043;-87
2021/09/19 05:10:13;;;;;;;47.15;28.27;;;14.70;99.90;;;;;;5095470;27;20099;-87
2021/09/19 05:12:50;;;;;;;48.17;31.52;;;14.60;99.90;;;;;;5113398;28;20031;-87
2021/09/19 05:15:29;;;;;;;48.70;30.42;;;14.60;99.90;;;;;;5120288;27;20031;-87
2021/09/19 05:18:15;;;;;;;48.30;30.20;;;14.40;99.90;;;;;;5114753;28;20050;-88
2021/09/19 05:20:57;;;;;;;47.30;29.92;;;14.60;99.90;;;;;;5118792;27;20039;-89
2021/09/19 05:23:35;;;;;;;43.35;27.83;;;14.50;99.90;;;;;;5115430;28;20042;-89
2021/09/19 05:26:18;;;;;;;47.40;30.30;;;14.60;99.90;;;;;;5054532;28;20048;-87
2021/09/19 05:29:24;;;;;;;53.22;30.75;;;14.50;99.90;;;;;;5091677;27;20027;-87
2021/09/19 05:32:23;;;;;;;47.33;30.58;;;14.60;99.90;;;;;;5129094;27;20047;-86
2021/09/19 05:35:00;;;;;;;52.55;30.42;;;14.70;99.90;;;;;;5081385;28;20050;-87
2021/09/19 05:37:44;;;;;;;49.50;32.13;;;14.70;99.90;;;;;;5126020;27;20051;-87
2021/09/19 05:40:19;;;;;;;51.20;29.45;;;14.70;99.90;;;;;;5153370;27;20039;-87
2021/09/19 05:42:58;;;;;;;48.72;31.17;;;14.90;99.90;;;;;;5117196;28;20040;-87
2021/09/19 05:45:36;;;;;;;48.20;29.63;;;14.80;99.90;;;;;;5062571;28;20052;-87
2021/09/19 05:48:14;;;;;;;47.55;31.23;;;14.90;99.90;;;;;;5049528;28;20048;-87
2021/09/19 05:50:56;;;;;;;53.70;31.60;;;14.90;99.90;;;;;;5047333;28;20052;-88
2021/09/19 05:53:51;;;;;;;49.50;29.33;;;15.20;99.90;;;;;;5082065;28;20049;-87
2021/09/19 05:56:26;;;;;;;48.22;30.60;;;14.90;99.90;;;;;;5097596;28;20058;-86
2021/09/19 05:58:57;;;;;;;56.10;32.58;;;15.00;99.90;;;;;;5085277;28;20040;-87
2021/09/19 06:01:30;;;;;;;57.30;31.17;;;15.00;99.90;;;;;;5082463;28;21377;-87
2021/09/19 06:04:05;;;;;;;51.80;31.90;;;15.10;99.90;;;;;;5072978;28;20051;-86
2021/09/19 06:07:02;;;;;;;50.13;32.53;;;14.00;99.90;;;;;;5050441;28;20040;-86
2021/09/19 06:09:32;;;;;;;46.45;29.35;;;15.40;99.90;;;;;;5077040;28;20058;-87
2021/09/19 06:12:03;;;;;;;44.58;29.75;;;15.20;99.90;;;;;;5064663;28;20036;-87
2021/09/19 06:14:38;;;;;;;48.38;30.75;;;15.20;99.90;;;;;;5084416;28;20040;-87
2021/09/19 06:17:08;;;;;;;54.28;33.83;;;15.30;99.90;;;;;;5056818;28;20048;-87
2021/09/19 06:19:40;;;;;;;52.45;33.45;;;15.30;99.90;;;;;;5066034;28;20052;-87
2021/09/19 06:22:20;;;;;;;56.25;35.15;;;15.40;99.90;;;;;;5083775;28;20063;-87
2021/09/19 06:25:00;;;;;;;55.92;34.92;;;15.40;99.90;;;;;;5098859;28;20237;-87
2021/09/19 06:27:35;;;;;;;56.13;34.58;;;15.40;99.90;;;;;;5058239;28;20048;-87
2021/09/19 06:30:08;;;;;;;48.30;31.17;;;15.50;99.90;;;;;;5096419;28;20640;-87
2021/09/19 06:32:51;;;;;;;50.90;29.35;;;15.40;99.90;;;;;;5073398;28;20070;-87
2021/09/19 06:35:26;;;;;;;59.03;35.85;;;15.50;99.90;;;;;;5086270;28;20052;-86
2021/09/19 06:38:55;;;;;;;63.78;35.53;;;16.60;99.90;;;;;;5105961;28;20050;-89
2021/09/19 06:41:26;;;;;;;56.67;35.47;;;15.50;99.90;;;;;;5098803;28;20048;-87
2021/09/19 06:44:08;;;;;;;61.88;36.88;;;15.70;99.90;;;;;;5090097;28;20042;-87
2021/09/19 06:46:40;;;;;;;56.30;35.72;;;15.50;99.90;;;;;;5100079;28;20035;-87
2021/09/19 06:49:14;;;;;;;52.22;33.75;;;15.50;99.90;;;;;;5101433;28;20046;-86
2021/09/19 06:51:48;;;;;;;58.33;34.03;;;15.50;99.90;;;;;;5075264;28;20052;-86
2021/09/19 06:54:24;;;;;;;51.58;33.33;;;15.40;99.90;;;;;;5110743;28;20048;-87
2021/09/19 06:56:57;;;;;;;61.17;37.60;;;15.70;99.90;;;;;;5111270;28;20063;-87
2021/09/19 06:59:30;;;;;;;63.80;36.15;;;15.60;99.90;;;;;;5078709;28;20047;-87
2021/09/19 07:02:04;;;;;;;59.55;35.92;;;15.70;99.90;;;;;;5092547;28;20052;-87
2021/09/19 07:04:35;;;;;;;53.53;32.47;;;15.70;99.90;;;;;;5091001;28;20044;-87
2021/09/19 07:07:11;;;;;;;54.97;34.80;;;15.70;99.90;;;;;;5097573;28;20052;-87
2021/09/19 07:09:50;;;;;;;59.53;36.17;;;15.80;99.90;;;;;;5075489;28;20048;-87
2021/09/19 07:15:27;;;;;;;57.97;37.28;;;15.90;99.90;;;;;;5097503;28;20062;-88
2021/09/19 07:18:07;;;;;;;58.35;36.83;;;15.90;99.90;;;;;;5110289;28;20046;-86
2021/09/19 07:20:42;;;;;;;54.28;36.22;;;16.00;99.90;;;;;;5077501;28;20060;-86
2021/09/19 07:23:30;;;;;;;63.53;36.10;;;16.00;99.90;;;;;;5072246;28;20043;-85
2021/09/19 07:26:23;;;;;;;56.40;36.88;;;16.10;99.90;;;;;;5117978;28;20050;-87
2021/09/19 07:28:54;;;;;;;67.18;37.47;;;16.20;99.90;;;;;;5116264;28;20125;-87
2021/09/19 07:31:33;;;;;;;63.53;37.78;;;16.10;99.90;;;;;;5111614;28;20043;-87
2021/09/19 07:34:03;;;;;;;60.47;38.22;;;16.20;99.90;;;;;;5102460;28;20044;-87
2021/09/19 07:36:36;;;;;;;56.25;36.92;;;16.30;99.90;;;;;;5094353;28;20047;-87
2021/09/19 07:40:07;;;;;;;64.50;38.50;;;16.30;99.90;;;;;;5098102;28;20043;-87
2021/09/19 07:42:44;;;;;;;59.05;37.83;;;16.40;99.90;;;;;;5087242;28;20040;-88
2021/09/19 07:45:33;;;;;;;63.63;38.13;;;16.40;99.90;;;;;;5061936;28;20040;-87
2021/09/19 07:48:11;;;;;;;62.45;36.97;;;16.60;99.90;;;;;;5063267;28;20055;-86
2021/09/19 07:51:02;;;;;;;61.60;38.38;;;16.20;99.90;;;;;;5063471;28;20045;-86
2021/09/19 07:53:39;;;;;;;62.67;36.53;;;16.70;99.90;;;;;;5081779;28;20035;-87
2021/09/19 07:56:21;;;;;;;59.03;37.30;;;16.80;99.90;;;;;;5103538;28;20040;-87
2021/09/19 07:58:56;;;;;;;62.72;38.53;;;17.10;99.90;;;;;;5091418;28;20022;-87
2021/09/19 08:01:52;;;;;;;63.60;39.80;;;16.00;99.90;;;;;;5087137;28;20053;-88
2021/09/19 08:05:01;;;;;;;63.45;39.17;;;17.00;99.90;;;;;;5084201;28;20040;-86
2021/09/19 08:08:02;;;;;;;60.50;39.70;;;17.10;99.90;;;;;;5081142;28;20034;-87
2021/09/19 08:10:44;;;;;;;61.42;40.08;;;17.20;99.90;;;;;;5111080;28;20028;-87
2021/09/19 08:13:23;;;;;;;56.33;38.70;;;17.10;99.90;;;;;;5068750;28;20052;-87
2021/09/19 08:16:02;;;;;;;60.63;40.30;;;17.40;99.90;;;;;;5098864;28;20055;-88
2021/09/19 08:18:38;;;;;;;69.13;39.53;;;17.00;99.90;;;;;;5063049;28;20052;-87
2021/09/19 08:21:09;;;;;;;61.63;39.25;;;17.60;99.90;;;;;;5054756;28;20039;-87
2021/09/19 08:23:46;;;;;;;66.97;41.53;;;17.70;99.90;;;;;;5059955;28;20037;-87
2021/09/19 08:26:44;;;;;;;58.72;40.53;;;17.80;99.90;;;;;;5067031;28;20054;-87
2021/09/19 08:29:25;;;;;;;64.00;39.35;;;17.80;99.90;;;;;;5078379;28;20054;-88
2021/09/19 08:32:40;;;;;;;67.75;39.40;;;18.00;99.90;;;;;;5093642;28;20027;-87
2021/09/19 08:35:24;;;;;;;64.45;37.08;;;18.10;99.90;;;;;;5088089;28;20044;-88
2021/09/19 08:38:05;;;;;;;58.40;37.58;;;18.10;99.90;;;;;;5094203;28;20224;-87
2021/09/19 08:41:00;;;;;;;58.67;37.28;;;18.20;99.90;;;;;;5073949;28;20043;-88
2021/09/19 08:43:30;;;;;;;68.50;38.40;;;18.30;99.90;;;;;;5072130;28;20058;-88
2021/09/19 08:46:29;;;;;;;51.63;32.60;;;18.40;99.90;;;;;;5081486;28;20306;-87
2021/09/19 08:49:04;;;;;;;63.45;36.00;;;18.40;99.90;;;;;;5094085;27;20286;-88
2021/09/19 08:51:43;;;;;;;55.75;34.58;;;18.50;99.90;;;;;;5093347;28;20558;-88
2021/09/19 08:55:44;;;;;;;;;;;;;;;;;;;;;
2021/09/19 09:00:18;;;;;;;;;;;;;;;;;;;;;
2021/09/19 09:04:48;;;;;;;46.50;28.52;;;18.50;99.90;;;;;;4971629;28;20050;-89
2021/09/19 09:12:06;;;;;;;48.03;27.83;;;18.60;99.90;;;;;;5110694;27;20421;-86
2021/09/19 09:14:44;;;;;;;46.97;28.40;;;18.60;99.90;;;;;;5092470;28;20043;-88
2021/09/19 09:17:19;;;;;;;43.92;27.17;;;18.70;99.90;;;;;;5063951;28;20056;-88
2021/09/19 09:19:57;;;;;;;44.55;27.83;;;18.80;99.90;;;;;;5086745;28;20059;-88
2021/09/19 09:22:31;;;;;;;45.90;29.33;;;18.80;99.90;;;;;;5082842;28;20041;-89
2021/09/19 09:25:08;;;;;;;47.17;31.10;;;19.00;99.90;;;;;;5071564;28;20048;-88
2021/09/19 09:27:45;;;;;;;45.17;28.40;;;19.00;99.90;;;;;;5093268;28;20059;-88
2021/09/19 09:30:21;;;;;;;44.17;29.10;;;19.10;99.90;;;;;;5096100;28;20057;-87
2021/09/19 09:32:57;;;;;;;50.47;29.92;;;19.20;99.90;;;;;;5084884;28;20051;-87
2021/09/19 09:35:47;;;;;;;50.97;30.67;;;19.10;99.90;;;;;;5067553;28;20055;-86
2021/09/19 09:38:40;;;;;;;49.85;31.65;;;19.10;99.90;;;;;;5050111;28;20518;-89
2021/09/19 09:41:08;;;;;;;58.15;29.58;;;19.20;99.90;;;;;;5074151;28;20071;-87
2021/09/19 09:43:40;;;;;;;51.40;29.98;;;19.20;99.90;;;;;;5088539;28;20052;-88
2021/09/19 09:46:23;;;;;;;46.72;28.27;;;19.30;99.90;;;;;;5079895;28;20066;-87
2021/09/19 09:48:52;;;;;;;43.50;28.45;;;19.40;99.90;;;;;;5082617;28;20040;-88
2021/09/19 09:51:25;;;;;;;44.25;29.63;;;19.40;99.90;;;;;;5081258;28;20051;-88
2021/09/19 09:53:59;;;;;;;45.50;28.30;;;19.50;99.90;;;;;;5075002;28;20316;-88
2021/09/19 09:56:33;;;;;;;46.25;29.42;;;19.60;99.90;;;;;;5074046;28;20058;-88
2021/09/19 09:59:06;;;;;;;46.00;27.60;;;19.70;99.90;;;;;;5093643;28;20054;-87
2021/09/19 10:02:03;;;;;;;44.38;28.90;;;19.80;99.90;;;;;;5088136;28;20037;-85
2021/09/19 10:04:40;;;;;;;44.60;28.85;;;19.90;99.90;;;;;;5090285;28;20055;-88
2021/09/19 10:07:11;;;;;;;43.78;27.65;;;20.00;99.90;;;;;;5061434;28;20049;-87
2021/09/19 10:09:42;;;;;;;51.77;27.67;;;20.10;99.90;;;;;;5055284;28;20048;-86
2021/09/19 10:12:14;;;;;;;43.38;28.15;;;20.30;99.90;;;;;;5067953;28;20297;-87
2021/09/19 10:14:42;;;;;;;44.30;28.85;;;20.40;99.90;;;;;;5076118;28;20044;-87
2021/09/19 10:17:10;;;;;;;46.28;28.38;;;20.50;99.90;;;;;;5053994;28;20045;-88
2021/09/19 10:19:41;;;;;;;41.83;26.15;;;20.50;99.90;;;;;;5064553;28;20055;-87
2021/09/19 10:22:11;;;;;;;40.70;26.67;;;20.60;99.90;;;;;;5073204;28;20878;-86
2021/09/19 10:24:47;;;;;;;44.20;26.55;;;20.60;99.90;;;;;;5038985;28;20049;-87
2021/09/19 10:27:27;;;;;;;40.58;26.30;;;20.60;99.90;;;;;;5062890;28;20059;-87
2021/09/19 10:30:03;;;;;;;39.47;25.20;;;20.60;99.90;;;;;;5056733;28;20075;-87
2021/09/19 10:32:47;;;;;;;41.67;26.52;;;20.60;99.90;;;;;;5044041;28;20048;-86
2021/09/19 10:35:18;;;;;;;42.58;26.38;;;20.70;99.90;;;;;;5063239;28;20037;-87
2021/09/19 10:37:48;;;;;;;;;;;20.70;99.90;;;;;;5043365;28;20048;-87
2021/09/19 10:40:45;;;;;;;41.50;24.75;;;20.80;99.90;;;;;;5060972;28;19921;-86
2021/09/19 10:43:21;;;;;;;35.65;24.83;;;20.80;99.90;;;;;;5052070;28;20045;-87
2021/09/19 10:45:53;;;;;;;38.75;23.60;;;20.90;99.90;;;;;;5025158;28;20492;-87
2021/09/19 10:48:29;;;;;;;36.15;24.38;;;20.90;99.90;;;;;;5028039;28;20061;-87
2021/09/19 10:51:02;;;;;;;35.15;23.10;;;21.00;99.90;;;;;;5056278;28;20518;-88
2021/09/19 10:53:30;;;;;;;34.17;23.38;;;21.10;99.90;;;;;;5039117;28;20049;-87
2021/09/19 10:56:03;;;;;;;39.22;24.20;;;21.20;99.90;;;;;;5039207;28;20059;-87
2021/09/19 10:58:37;;;;;;;38.75;22.20;;;21.40;99.90;;;;;;5042944;28;20050;-88
2021/09/19 11:01:10;;;;;;;37.78;24.10;;;21.40;99.90;;;;;;5032496;28;20084;-87
2021/09/19 11:03:46;;;;;;;41.85;25.75;;;21.60;99.90;;;;;;5061794;28;20049;-88
2021/09/19 11:06:41;;;;;;;42.30;25.27;;;21.60;99.90;;;;;;5065834;28;20045;-89
2021/09/19 11:09:28;;;;;;;43.20;27.00;;;21.70;99.90;;;;;;5075276;28;20060;-88
2021/09/19 11:12:05;;;;;;;40.25;29.08;;;21.80;99.90;;;;;;5064140;28;20127;-88
2021/09/19 11:15:00;;;;;;;42.65;29.17;;;21.90;99.90;;;;;;5026012;28;20056;-88
2021/09/19 11:17:33;;;;;;;42.10;27.52;;;21.90;99.90;;;;;;5048129;28;20056;-88
2021/09/19 11:20:14;;;;;;;42.90;26.55;;;22.00;99.90;;;;;;5060666;28;20051;-88
2021/09/19 11:22:46;;;;;;;41.38;28.23;;;22.00;99.90;;;;;;5057589;28;20051;-87
2021/09/19 11:25:20;;;;;;;40.13;25.92;;;22.10;99.90;;;;;;5056672;28;20064;-88
2021/09/19 11:27:51;;;;;;;48.90;29.98;;;22.10;99.90;;;;;;5061915;28;20037;-88
2021/09/19 11:30:24;;;;;;;47.75;29.20;;;22.20;99.90;;;;;;5070451;28;20093;-87
2021/09/19 11:32:55;;;;;;;45.20;29.02;;;22.20;99.90;;;;;;5039366;28;20088;-88
2021/09/19 11:35:23;;;;;;;46.50;31.15;;;22.30;99.90;;;;;;5043117;28;20044;-87
2021/09/19 11:37:58;;;;;;;49.22;30.85;;;22.20;99.90;;;;;;5056888;28;20056;-87
2021/09/19 11:40:28;;;;;;;44.20;30.48;;;22.30;99.90;;;;;;5062149;28;20045;-88
2021/09/19 11:43:18;;;;;;;46.30;32.38;;;22.30;99.90;;;;;;5048248;28;20044;-87
2021/09/19 11:45:53;;;;;;;49.85;29.80;;;22.30;99.90;;;;;;5046707;28;20067;-87
2021/09/19 11:48:24;;;;;;;45.72;29.33;;;22.40;99.90;;;;;;5044575;28;20526;-88
2021/09/19 11:50:53;;;;;;;37.95;25.88;;;22.40;99.90;;;;;;5047250;28;20041;-88
2021/09/19 11:53:23;;;;;;;36.83;25.30;;;22.50;99.90;;;;;;5008016;28;20040;-89
2021/09/19 11:55:53;;;;;;;39.88;25.40;;;22.50;99.90;;;;;;5063926;28;20048;-88
2021/09/19 11:58:22;;;;;;;35.90;25.55;;;22.40;99.90;;;;;;5029092;28;20056;-87
2021/09/19 12:01:00;;;;;;;42.25;25.83;;;21.50;99.60;;;;;;5031989;28;20412;-85
2021/09/19 12:03:35;;;;;;;38.78;23.05;;;22.50;99.30;;;;;;5062861;28;20404;-87
2021/09/19 12:06:11;;;;;;;36.03;22.17;;;22.60;99.50;;;;;;5060317;28;20021;-87
2021/09/19 12:08:43;;;;;;;34.83;20.75;;;22.00;99.50;;;;;;5069471;28;20048;-88
2021/09/19 12:11:17;;;;;;;40.08;22.65;;;22.60;99.60;;;;;;5047843;28;20064;-87
2021/09/19 12:14:09;;;;;;;42.03;22.38;;;22.50;99.50;;;;;;5089524;22;20063;-82
2021/09/19 12:17:06;;;;;;;33.10;21.85;;;23.00;99.40;;;;;;5063715;28;20055;-85
2021/09/19 12:19:45;;;;;;;34.17;20.65;;;22.70;99.50;;;;;;5038809;28;20048;-89
2021/09/19 12:22:27;;;;;;;29.02;18.95;;;22.40;99.70;;;;;;5048677;28;20041;-86
2021/09/19 12:25:01;;;;;;;26.52;13.88;;;22.30;99.90;;;;;;5058801;28;20042;-88
2021/09/19 12:27:47;;;;;;;22.73;12.27;;;23.20;99.90;;;;;;5066897;28;20055;-89
2021/09/19 12:30:20;;;;;;;24.50;12.38;;;22.10;99.90;;;;;;5042970;28;20057;-87
2021/09/19 12:32:57;;;;;;;21.48;10.65;;;22.00;99.90;;;;;;5058510;28;20056;-86
2021/09/19 12:35:31;;;;;;;19.73;8.55;;;21.90;99.90;;;;;;5047155;28;20052;-85
2021/09/19 12:38:09;;;;;;;18.50;9.43;;;21.70;99.90;;;;;;5019695;28;20041;-87
2021/09/19 12:40:45;;;;;;;18.25;10.20;;;21.70;99.90;;;;;;5049849;28;20045;-90
2021/09/19 12:43:23;;;;;;;19.58;10.95;;;21.50;99.90;;;;;;5065990;28;20049;-88
2021/09/19 12:45:59;;;;;;;17.27;10.15;;;21.30;99.90;;;;;;5054976;28;20059;-88
2021/09/19 12:49:01;;;;;;;19.05;10.95;;;22.00;99.90;;;;;;5038438;28;20041;-87
2021/09/19 12:51:30;;;;;;;19.80;12.73;;;21.10;99.90;;;;;;5035459;28;20059;-88
2021/09/19 12:53:59;;;;;;;19.85;11.50;;;20.90;99.90;;;;;;5047140;28;20060;-88
2021/09/19 12:56:40;;;;;;;21.60;12.63;;;20.80;99.90;;;;;;5049067;28;20061;-88
2021/09/19 12:59:10;;;;;;;20.02;11.98;;;20.60;99.90;;;;;;5055003;28;20053;-87
2021/09/19 13:01:40;;;;;;;28.33;14.85;;;20.50;99.90;;;;;;5036672;28;20041;-88
2021/09/19 13:04:09;;;;;;;25.27;14.77;;;20.40;99.90;;;;;;5049626;28;20068;-88
2021/09/19 13:06:45;;;;;;;26.38;14.48;;;20.30;99.90;;;;;;5076013;28;20065;-90
2021/09/19 13:09:16;;;;;;;33.08;18.08;;;20.10;99.90;;;;;;5046755;28;20055;-87
2021/09/19 13:11:45;;;;;;;25.85;15.63;;;20.10;99.90;;;;;;5072724;28;20041;-85
2021/09/19 13:14:15;;;;;;;27.15;16.35;;;20.60;99.90;;;;;;5034702;28;20041;-88
2021/09/19 13:16:49;;;;;;;30.42;16.77;;;19.80;99.90;;;;;;5049888;28;20036;-88
2021/09/19 13:19:19;;;;;;;33.33;18.67;;;19.70;99.90;;;;;;5048897;28;20046;-89
2021/09/19 13:21:50;;;;;;;29.15;17.92;;;19.50;99.90;;;;;;5034960;28;20051;-88
2021/09/19 13:24:25;;;;;;;29.70;18.67;;;19.70;99.90;;;;;;5015484;28;20049;-89
2021/09/19 13:27:26;;;;;;;33.22;20.73;;;19.40;99.90;;;;;;5046427;28;20065;-89
2021/09/19 13:29:57;;;;;;;33.00;20.63;;;19.30;99.90;;;;;;5051286;28;20189;-89
2021/09/19 13:32:29;;;;;;;32.10;20.27;;;19.20;99.90;;;;;;5063889;28;20065;-88
2021/09/19 13:35:01;;;;;;;34.15;19.83;;;19.20;99.90;;;;;;5049743;28;20060;-88
2021/09/19 13:37:36;;;;;;;31.40;18.67;;;19.10;99.90;;;;;;5033849;28;20071;-88
2021/09/19 13:40:09;;;;;;;31.85;19.80;;;19.10;99.90;;;;;;5046680;28;20053;-87
2021/09/19 13:42:39;;;;;;;33.35;20.85;;;19.00;99.90;;;;;;5031326;28;20037;-87
2021/09/19 13:45:12;;;;;;;33.65;20.98;;;18.90;99.90;;;;;;5048556;28;20042;-90
2021/09/19 13:47:46;;;;;;;32.50;20.40;;;19.00;99.90;;;;;;5018911;28;20033;-92
2021/09/19 13:50:23;;;;;;;35.65;19.75;;;19.10;99.90;;;;;;5064573;28;20182;-90
2021/09/19 13:52:59;;;;;;;33.38;20.50;;;19.10;99.90;;;;;;5034888;28;20063;-89
2021/09/19 13:55:29;;;;;;;35.47;21.88;;;18.10;99.90;;;;;;5015616;28;20049;-89